createdAt,value
2023-04-16T00:00:22.494Z,7
2023-04-16T00:10:24.417Z,7
2023-04-16T00:20:25.621Z,7
2023-04-16T00:30:26.765Z,7.1
2023-04-16T00:40:28.217Z,7
2023-04-16T00:50:29.266Z,7
2023-04-16T01:00:30.362Z,7
2023-04-16T01:10:31.564Z,7
2023-04-16T01:20:33.067Z,7
2023-04-16T01:30:34.337Z,7
2023-04-16T01:40:36.334Z,7
2023-04-16T01:50:38.239Z,7.1
2023-04-16T02:00:39.499Z,7.1
2023-04-16T02:30:44.372Z,7.3
2023-04-16T02:40:45.972Z,7.3
2023-04-16T03:00:48.411Z,7.4
2023-04-16T03:30:52.865Z,7.5
2023-04-16T03:40:54.436Z,7.5
2023-04-16T04:00:58.089Z,7.6
2023-04-16T04:10:59.650Z,7.6
2023-04-16T04:21:01.446Z,7.6
2023-04-16T04:31:03.184Z,7.7
2023-04-16T04:41:04.518Z,7.7
2023-04-16T04:51:05.902Z,7.7
2023-04-16T05:01:07.343Z,7.8
2023-04-16T05:11:08.708Z,7.8
2023-04-16T05:21:10.418Z,7.8
2023-04-16T05:31:12.034Z,7.8
2023-04-16T05:41:13.258Z,7.8
2023-04-16T05:51:15.252Z,7.9
2023-04-16T06:11:17.731Z,8
2023-04-16T06:21:19.624Z,8
2023-04-16T06:31:21.641Z,8.1
2023-04-16T06:41:23.407Z,8.2
2023-04-16T06:51:24.886Z,8.2
2023-04-16T07:01:26.288Z,8.3
2023-04-16T08:01:35.576Z,8.5
2023-04-16T08:11:37.513Z,8.6
2023-04-16T08:21:38.676Z,8.9
2023-04-16T08:31:40.535Z,8.8
2023-04-16T08:41:41.938Z,8.9
2023-04-16T08:51:43.111Z,9
2023-04-16T09:01:44.912Z,9
2023-04-16T09:11:46.497Z,8.9
2023-04-16T09:21:47.879Z,9.2
2023-04-16T09:51:52.273Z,10
2023-04-16T10:01:57.352Z,10.5
2023-04-16T10:11:55.334Z,10.8
2023-04-16T10:21:56.823Z,10.8
2023-04-16T10:31:58.809Z,11.6
2023-04-16T10:42:00.560Z,11.6
2023-04-16T10:52:02.172Z,11.7
2023-04-16T11:02:04.118Z,11.6
2023-04-16T11:12:05.543Z,11.7
2023-04-16T11:22:07.087Z,11.9
2023-04-16T11:32:08.347Z,11.7
2023-04-16T11:42:09.820Z,11.9
2023-04-16T11:52:11.167Z,11.8
2023-04-16T12:02:12.822Z,11.7
2023-04-16T12:12:14.650Z,11.7
2023-04-16T12:32:17.863Z,12.2
2023-04-16T12:42:19.685Z,12.4
2023-04-16T12:52:22.509Z,12.6
2023-04-16T13:02:22.808Z,12.7
2023-04-16T13:12:24.166Z,12.8
2023-04-16T13:22:25.778Z,12.9
2023-04-16T13:32:27.763Z,12.9
2023-04-16T13:52:30.944Z,13.3
2023-04-16T14:42:38.182Z,13.1
2023-04-16T14:52:40.075Z,12.9
2023-04-16T15:12:43.813Z,13.1
2023-04-16T15:32:46.369Z,13.5
2023-04-16T15:42:47.819Z,13.5
2023-04-16T16:02:50.127Z,13.5
2023-04-16T18:03:07.379Z,12.3
2023-04-16T18:13:09.005Z,12.2
2023-04-16T18:23:10.650Z,11.8
2023-04-16T18:33:38.794Z,11.6
2023-04-16T18:43:13.767Z,11.4
2023-04-16T18:53:15.093Z,11.3
2023-04-16T19:03:16.873Z,11.2
2023-04-16T19:13:18.118Z,11.1
2023-04-16T19:23:19.902Z,11
2023-04-16T19:33:21.847Z,10.9
2023-04-16T19:43:22.952Z,10.8
2023-04-16T19:53:24.631Z,10.7
2023-04-16T20:03:26.458Z,10.6
2023-04-16T20:13:28.429Z,10.5
2023-04-16T20:23:29.801Z,10.4
2023-04-16T20:33:31.485Z,10.4
2023-04-16T20:43:33.096Z,10.3
2023-04-16T20:53:35.039Z,10.2
2023-04-16T21:03:36.644Z,10.1
2023-04-16T21:13:38.022Z,10.1
2023-04-16T21:23:39.372Z,10
2023-04-16T21:33:40.632Z,10
2023-04-16T21:43:42.461Z,9.9
2023-04-16T22:03:45.919Z,9.8
2023-04-16T22:06:24.196Z,9.8
2023-04-16T22:13:56.567Z,9.8
2023-04-16T22:23:58.323Z,9.8
2023-04-16T22:34:00.971Z,9.7
2023-04-16T22:54:02.458Z,9.7
2023-04-16T23:14:04.968Z,9.6
2023-04-16T23:34:07.833Z,9.6
